sensor_id;sensor_type;location;lat;lon;timestamp;temperature;humidity
38788;DHT22;24536;45.488;12.238;2023-03-03T00:02:18;10.60;75.60
38788;DHT22;24536;45.488;12.238;2023-03-03T00:04:44;10.60;75.60
38788;DHT22;24536;45.488;12.238;2023-03-03T00:07:11;10.50;76.10
38788;DHT22;24536;45.488;12.238;2023-03-03T00:09:37;10.40;76.10
38788;DHT22;24536;45.488;12.238;2023-03-03T00:14:42;10.20;76.50
38788;DHT22;24536;45.488;12.238;2023-03-03T00:17:24;10.20;76.20
38788;DHT22;24536;45.488;12.238;2023-03-03T00:19:51;10.10;76.60
38788;DHT22;24536;45.488;12.238;2023-03-03T00:22:31;10.10;76.60
38788;DHT22;24536;45.488;12.238;2023-03-03T00:25:27;10.20;76.70
38788;DHT22;24536;45.488;12.238;2023-03-03T00:27:53;10.20;76.60
38788;DHT22;24536;45.488;12.238;2023-03-03T00:30:23;10.10;76.60
38788;DHT22;24536;45.488;12.238;2023-03-03T00:32:49;10.00;76.70
38788;DHT22;24536;45.488;12.238;2023-03-03T00:35:37;10.00;77.10
38788;DHT22;24536;45.488;12.238;2023-03-03T00:38:19;10.00;77.00
38788;DHT22;24536;45.488;12.238;2023-03-03T00:40:46;9.90;76.90
38788;DHT22;24536;45.488;12.238;2023-03-03T00:43:21;10.00;77.20
38788;DHT22;24536;45.488;12.238;2023-03-03T00:45:56;10.00;77.00
38788;DHT22;24536;45.488;12.238;2023-03-03T00:51:04;10.00;77.00
38788;DHT22;24536;45.488;12.238;2023-03-03T00:53:32;9.90;77.10
38788;DHT22;24536;45.488;12.238;2023-03-03T00:55:58;9.90;77.30
38788;DHT22;24536;45.488;12.238;2023-03-03T00:58:24;9.90;77.10
38788;DHT22;24536;45.488;12.238;2023-03-03T01:00:52;9.90;77.40
38788;DHT22;24536;45.488;12.238;2023-03-03T01:03:20;9.90;77.20
38788;DHT22;24536;45.488;12.238;2023-03-03T01:05:47;9.90;77.20
38788;DHT22;24536;45.488;12.238;2023-03-03T01:08:13;9.90;77.30
38788;DHT22;24536;45.488;12.238;2023-03-03T01:10:48;9.80;77.50
38788;DHT22;24536;45.488;12.238;2023-03-03T01:13:19;9.80;77.60
38788;DHT22;24536;45.488;12.238;2023-03-03T01:15:45;9.70;77.60
38788;DHT22;24536;45.488;12.238;2023-03-03T01:18:11;9.70;77.60
38788;DHT22;24536;45.488;12.238;2023-03-03T01:20:38;9.80;77.60
38788;DHT22;24536;45.488;12.238;2023-03-03T01:23:04;9.60;77.70
38788;DHT22;24536;45.488;12.238;2023-03-03T01:25:29;9.70;77.70
38788;DHT22;24536;45.488;12.238;2023-03-03T01:27:56;9.70;77.70
38788;DHT22;24536;45.488;12.238;2023-03-03T01:30:21;9.70;77.60
38788;DHT22;24536;45.488;12.238;2023-03-03T01:32:47;9.80;77.70
38788;DHT22;24536;45.488;12.238;2023-03-03T01:35:13;9.60;78.20
38788;DHT22;24536;45.488;12.238;2023-03-03T01:37:39;9.60;78.00
38788;DHT22;24536;45.488;12.238;2023-03-03T01:40:06;9.50;78.30
38788;DHT22;24536;45.488;12.238;2023-03-03T01:42:32;9.50;78.10
38788;DHT22;24536;45.488;12.238;2023-03-03T01:47:55;9.50;78.40
38788;DHT22;24536;45.488;12.238;2023-03-03T01:52:58;9.40;78.90
38788;DHT22;24536;45.488;12.238;2023-03-03T01:55:29;9.30;78.90
38788;DHT22;24536;45.488;12.238;2023-03-03T01:58:21;9.10;79.40
38788;DHT22;24536;45.488;12.238;2023-03-03T02:00:50;9.00;79.60
38788;DHT22;24536;45.488;12.238;2023-03-03T02:03:18;9.10;79.40
38788;DHT22;24536;45.488;12.238;2023-03-03T02:05:45;9.10;79.60
38788;DHT22;24536;45.488;12.238;2023-03-03T02:08:14;9.20;79.10
38788;DHT22;24536;45.488;12.238;2023-03-03T02:10:44;9.20;79.20
38788;DHT22;24536;45.488;12.238;2023-03-03T02:13:10;9.20;79.40
38788;DHT22;24536;45.488;12.238;2023-03-03T02:15:36;9.20;79.40
38788;DHT22;24536;45.488;12.238;2023-03-03T02:18:08;9.10;79.50
38788;DHT22;24536;45.488;12.238;2023-03-03T02:26:31;9.00;79.80
38788;DHT22;24536;45.488;12.238;2023-03-03T02:28:58;9.00;79.90
38788;DHT22;24536;45.488;12.238;2023-03-03T02:31:26;8.90;80.40
38788;DHT22;24536;45.488;12.238;2023-03-03T02:33:53;9.00;80.00
38788;DHT22;24536;45.488;12.238;2023-03-03T02:36:25;9.00;80.20
38788;DHT22;24536;45.488;12.238;2023-03-03T02:44:37;9.20;79.70
38788;DHT22;24536;45.488;12.238;2023-03-03T02:47:03;9.20;79.40
38788;DHT22;24536;45.488;12.238;2023-03-03T02:49:33;9.20;79.20
38788;DHT22;24536;45.488;12.238;2023-03-03T02:52:01;9.30;79.30
38788;DHT22;24536;45.488;12.238;2023-03-03T02:54:28;9.40;79.10
38788;DHT22;24536;45.488;12.238;2023-03-03T02:56:57;9.40;79.00
38788;DHT22;24536;45.488;12.238;2023-03-03T02:59:23;9.30;79.10
38788;DHT22;24536;45.488;12.238;2023-03-03T03:01:49;9.30;79.20
38788;DHT22;24536;45.488;12.238;2023-03-03T03:04:20;9.20;79.40
38788;DHT22;24536;45.488;12.238;2023-03-03T03:06:46;9.10;79.50
38788;DHT22;24536;45.488;12.238;2023-03-03T03:09:13;9.10;79.80
38788;DHT22;24536;45.488;12.238;2023-03-03T03:11:39;9.00;79.60
38788;DHT22;24536;45.488;12.238;2023-03-03T03:14:07;9.00;79.80
38788;DHT22;24536;45.488;12.238;2023-03-03T03:16:33;9.00;79.90
38788;DHT22;24536;45.488;12.238;2023-03-03T03:19:00;9.00;79.90
38788;DHT22;24536;45.488;12.238;2023-03-03T03:21:26;9.00;80.00
38788;DHT22;24536;45.488;12.238;2023-03-03T03:23:52;9.00;80.00
38788;DHT22;24536;45.488;12.238;2023-03-03T03:26:18;9.00;79.80
38788;DHT22;24536;45.488;12.238;2023-03-03T03:28:48;9.00;79.80
38788;DHT22;24536;45.488;12.238;2023-03-03T03:31:15;9.00;80.00
38788;DHT22;24536;45.488;12.238;2023-03-03T03:33:41;9.00;80.00
38788;DHT22;24536;45.488;12.238;2023-03-03T03:36:08;9.10;79.90
38788;DHT22;24536;45.488;12.238;2023-03-03T03:38:35;9.10;79.80
38788;DHT22;24536;45.488;12.238;2023-03-03T03:41:02;9.10;79.80
38788;DHT22;24536;45.488;12.238;2023-03-03T03:43:28;9.10;79.80
38788;DHT22;24536;45.488;12.238;2023-03-03T03:45:54;9.10;79.70
38788;DHT22;24536;45.488;12.238;2023-03-03T03:48:20;9.10;79.60
38788;DHT22;24536;45.488;12.238;2023-03-03T03:50:47;9.10;79.70
38788;DHT22;24536;45.488;12.238;2023-03-03T03:53:13;9.10;79.60
38788;DHT22;24536;45.488;12.238;2023-03-03T03:55:38;9.00;79.70
38788;DHT22;24536;45.488;12.238;2023-03-03T03:58:04;9.00;79.80
38788;DHT22;24536;45.488;12.238;2023-03-03T04:00:30;9.00;79.90
38788;DHT22;24536;45.488;12.238;2023-03-03T04:02:55;8.90;80.00
38788;DHT22;24536;45.488;12.238;2023-03-03T04:05:21;9.00;80.10
38788;DHT22;24536;45.488;12.238;2023-03-03T04:07:47;8.90;80.10
38788;DHT22;24536;45.488;12.238;2023-03-03T04:10:13;8.80;80.60
38788;DHT22;24536;45.488;12.238;2023-03-03T04:12:38;8.70;80.90
38788;DHT22;24536;45.488;12.238;2023-03-03T04:15:13;8.70;81.10
38788;DHT22;24536;45.488;12.238;2023-03-03T04:17:40;8.70;80.70
38788;DHT22;24536;45.488;12.238;2023-03-03T04:20:07;8.70;80.70
38788;DHT22;24536;45.488;12.238;2023-03-03T04:22:33;8.70;80.70
38788;DHT22;24536;45.488;12.238;2023-03-03T04:25:01;8.70;80.60
38788;DHT22;24536;45.488;12.238;2023-03-03T04:27:33;8.70;80.80
38788;DHT22;24536;45.488;12.238;2023-03-03T04:29:59;8.80;80.80
38788;DHT22;24536;45.488;12.238;2023-03-03T04:32:25;8.70;80.80
38788;DHT22;24536;45.488;12.238;2023-03-03T04:34:51;8.80;80.70
38788;DHT22;24536;45.488;12.238;2023-03-03T04:37:17;8.80;81.10
38788;DHT22;24536;45.488;12.238;2023-03-03T04:39:42;8.80;80.60
38788;DHT22;24536;45.488;12.238;2023-03-03T04:42:08;8.90;80.60
38788;DHT22;24536;45.488;12.238;2023-03-03T04:44:34;8.90;80.50
38788;DHT22;24536;45.488;12.238;2023-03-03T04:46:59;9.00;80.60
38788;DHT22;24536;45.488;12.238;2023-03-03T04:49:25;9.00;80.40
38788;DHT22;24536;45.488;12.238;2023-03-03T04:51:51;9.00;80.40
38788;DHT22;24536;45.488;12.238;2023-03-03T04:54:16;9.00;80.40
38788;DHT22;24536;45.488;12.238;2023-03-03T04:56:42;9.00;80.30
38788;DHT22;24536;45.488;12.238;2023-03-03T04:59:08;9.00;80.30
38788;DHT22;24536;45.488;12.238;2023-03-03T05:01:34;9.00;80.40
38788;DHT22;24536;45.488;12.238;2023-03-03T05:03:59;8.90;80.50
38788;DHT22;24536;45.488;12.238;2023-03-03T05:06:25;8.90;80.50
38788;DHT22;24536;45.488;12.238;2023-03-03T05:08:51;8.80;80.60
38788;DHT22;24536;45.488;12.238;2023-03-03T05:11:16;8.80;80.70
38788;DHT22;24536;45.488;12.238;2023-03-03T05:13:42;8.80;80.80
38788;DHT22;24536;45.488;12.238;2023-03-03T05:16:08;8.70;80.70
38788;DHT22;24536;45.488;12.238;2023-03-03T05:18:33;8.70;80.80
38788;DHT22;24536;45.488;12.238;2023-03-03T05:20:59;8.70;81.00
38788;DHT22;24536;45.488;12.238;2023-03-03T05:23:25;8.60;81.20
38788;DHT22;24536;45.488;12.238;2023-03-03T05:25:51;8.50;81.60
38788;DHT22;24536;45.488;12.238;2023-03-03T05:28:17;8.50;81.50
38788;DHT22;24536;45.488;12.238;2023-03-03T05:30:43;8.50;81.50
38788;DHT22;24536;45.488;12.238;2023-03-03T05:33:13;8.50;81.60
38788;DHT22;24536;45.488;12.238;2023-03-03T05:35:39;8.50;81.70
38788;DHT22;24536;45.488;12.238;2023-03-03T05:38:04;8.40;81.70
38788;DHT22;24536;45.488;12.238;2023-03-03T05:40:30;8.50;81.80
38788;DHT22;24536;45.488;12.238;2023-03-03T05:42:56;8.50;81.70
38788;DHT22;24536;45.488;12.238;2023-03-03T05:45:22;8.50;81.70
38788;DHT22;24536;45.488;12.238;2023-03-03T05:47:52;8.40;82.10
38788;DHT22;24536;45.488;12.238;2023-03-03T05:50:19;8.40;82.00
38788;DHT22;24536;45.488;12.238;2023-03-03T05:52:49;8.40;82.10
38788;DHT22;24536;45.488;12.238;2023-03-03T05:55:15;8.40;82.10
38788;DHT22;24536;45.488;12.238;2023-03-03T05:57:40;8.40;82.10
38788;DHT22;24536;45.488;12.238;2023-03-03T06:00:07;8.40;82.20
38788;DHT22;24536;45.488;12.238;2023-03-03T06:02:33;8.40;82.30
38788;DHT22;24536;45.488;12.238;2023-03-03T06:04:59;8.40;82.30
38788;DHT22;24536;45.488;12.238;2023-03-03T06:07:25;8.50;82.10
38788;DHT22;24536;45.488;12.238;2023-03-03T06:09:50;8.40;82.00
38788;DHT22;24536;45.488;12.238;2023-03-03T06:12:16;8.40;82.30
38788;DHT22;24536;45.488;12.238;2023-03-03T06:14:42;8.30;82.40
38788;DHT22;24536;45.488;12.238;2023-03-03T06:17:07;8.30;82.50
38788;DHT22;24536;45.488;12.238;2023-03-03T06:19:33;8.30;82.50
38788;DHT22;24536;45.488;12.238;2023-03-03T06:21:59;8.30;82.60
38788;DHT22;24536;45.488;12.238;2023-03-03T06:24:24;8.40;82.70
38788;DHT22;24536;45.488;12.238;2023-03-03T06:26:56;8.30;82.70
38788;DHT22;24536;45.488;12.238;2023-03-03T06:29:21;8.30;82.70
38788;DHT22;24536;45.488;12.238;2023-03-03T06:31:47;8.40;82.70
38788;DHT22;24536;45.488;12.238;2023-03-03T06:34:13;8.40;82.70
38788;DHT22;24536;45.488;12.238;2023-03-03T06:36:38;8.40;82.60
38788;DHT22;24536;45.488;12.238;2023-03-03T06:39:04;8.50;82.60
38788;DHT22;24536;45.488;12.238;2023-03-03T06:41:30;8.50;82.60
38788;DHT22;24536;45.488;12.238;2023-03-03T06:43:56;8.50;82.70
38788;DHT22;24536;45.488;12.238;2023-03-03T06:46:23;8.50;82.70
38788;DHT22;24536;45.488;12.238;2023-03-03T06:48:48;8.50;82.80
38788;DHT22;24536;45.488;12.238;2023-03-03T06:51:33;8.50;82.70
38788;DHT22;24536;45.488;12.238;2023-03-03T06:54:05;8.60;82.70
38788;DHT22;24536;45.488;12.238;2023-03-03T06:56:35;8.70;82.60
38788;DHT22;24536;45.488;12.238;2023-03-03T06:59:04;8.70;82.60
38788;DHT22;24536;45.488;12.238;2023-03-03T07:01:35;8.70;82.50
38788;DHT22;24536;45.488;12.238;2023-03-03T07:04:12;8.80;82.40
38788;DHT22;24536;45.488;12.238;2023-03-03T07:06:39;8.80;82.30
38788;DHT22;24536;45.488;12.238;2023-03-03T07:09:14;8.80;82.20
38788;DHT22;24536;45.488;12.238;2023-03-03T07:11:42;8.90;82.20
38788;DHT22;24536;45.488;12.238;2023-03-03T07:14:14;8.90;82.10
38788;DHT22;24536;45.488;12.238;2023-03-03T07:16:40;8.90;82.10
38788;DHT22;24536;45.488;12.238;2023-03-03T07:19:16;9.00;81.90
38788;DHT22;24536;45.488;12.238;2023-03-03T07:21:43;9.00;82.40
38788;DHT22;24536;45.488;12.238;2023-03-03T07:24:26;9.00;81.90
38788;DHT22;24536;45.488;12.238;2023-03-03T07:27:36;9.10;81.80
38788;DHT22;24536;45.488;12.238;2023-03-03T07:29:48;9.20;81.70
38788;DHT22;24536;45.488;12.238;2023-03-03T07:32:21;9.30;82.00
38788;DHT22;24536;45.488;12.238;2023-03-03T07:34:51;9.40;82.00
38788;DHT22;24536;45.488;12.238;2023-03-03T07:39:53;9.60;81.60
38788;DHT22;24536;45.488;12.238;2023-03-03T07:42:39;9.60;81.60
38788;DHT22;24536;45.488;12.238;2023-03-03T07:45:26;9.70;82.60
38788;DHT22;24536;45.488;12.238;2023-03-03T07:50:25;9.90;81.40
38788;DHT22;24536;45.488;12.238;2023-03-03T07:53:00;10.00;80.90
38788;DHT22;24536;45.488;12.238;2023-03-03T08:03:41;10.30;80.50
38788;DHT22;24536;45.488;12.238;2023-03-03T08:08:54;10.50;80.20
38788;DHT22;24536;45.488;12.238;2023-03-03T08:11:23;10.70;80.10
38788;DHT22;24536;45.488;12.238;2023-03-03T08:13:49;10.70;79.90
38788;DHT22;24536;45.488;12.238;2023-03-03T08:18:46;11.00;79.60
38788;DHT22;24536;45.488;12.238;2023-03-03T08:21:14;11.20;79.50
38788;DHT22;24536;45.488;12.238;2023-03-03T08:23:41;11.30;79.20
38788;DHT22;24536;45.488;12.238;2023-03-03T08:26:07;11.50;79.00
38788;DHT22;24536;45.488;12.238;2023-03-03T08:31:00;11.70;77.50
38788;DHT22;24536;45.488;12.238;2023-03-03T08:35:55;12.10;76.80
38788;DHT22;24536;45.488;12.238;2023-03-03T08:38:21;12.20;76.50
38788;DHT22;24536;45.488;12.238;2023-03-03T08:40:48;12.30;75.90
38788;DHT22;24536;45.488;12.238;2023-03-03T08:43:15;12.50;76.10
38788;DHT22;24536;45.488;12.238;2023-03-03T08:45:51;12.70;75.30
38788;DHT22;24536;45.488;12.238;2023-03-03T08:48:18;12.80;75.50
38788;DHT22;24536;45.488;12.238;2023-03-03T08:50:54;12.90;73.40
38788;DHT22;24536;45.488;12.238;2023-03-03T08:53:23;13.10;73.60
38788;DHT22;24536;45.488;12.238;2023-03-03T08:55:49;13.10;72.80
38788;DHT22;24536;45.488;12.238;2023-03-03T08:58:17;13.30;72.00
38788;DHT22;24536;45.488;12.238;2023-03-03T09:00:43;13.40;73.00
38788;DHT22;24536;45.488;12.238;2023-03-03T09:03:09;13.40;70.30
38788;DHT22;24536;45.488;12.238;2023-03-03T09:05:36;13.50;71.10
38788;DHT22;24536;45.488;12.238;2023-03-03T09:08:03;13.60;71.90
38788;DHT22;24536;45.488;12.238;2023-03-03T09:10:29;13.60;71.10
38788;DHT22;24536;45.488;12.238;2023-03-03T09:13:03;13.70;70.40
38788;DHT22;24536;45.488;12.238;2023-03-03T09:15:36;13.70;70.80
38788;DHT22;24536;45.488;12.238;2023-03-03T09:20:51;13.70;67.70
38788;DHT22;24536;45.488;12.238;2023-03-03T09:23:28;13.80;70.00
38788;DHT22;24536;45.488;12.238;2023-03-03T09:25:55;13.80;68.00
38788;DHT22;24536;45.488;12.238;2023-03-03T09:28:31;14.00;69.90
38788;DHT22;24536;45.488;12.238;2023-03-03T09:31:01;14.20;69.30
38788;DHT22;24536;45.488;12.238;2023-03-03T09:33:40;14.20;67.60
38788;DHT22;24536;45.488;12.238;2023-03-03T09:38:43;13.90;67.40
38788;DHT22;24536;45.488;12.238;2023-03-03T09:53:07;14.40;67.20
38788;DHT22;24536;45.488;12.238;2023-03-03T10:00:58;14.90;67.20
38788;DHT22;24536;45.488;12.238;2023-03-03T10:09:02;15.10;65.70
38788;DHT22;24536;45.488;12.238;2023-03-03T10:22:51;15.70;65.10
38788;DHT22;24536;45.488;12.238;2023-03-03T10:28:06;15.90;63.90
38788;DHT22;24536;45.488;12.238;2023-03-03T10:30:56;15.90;63.50
38788;DHT22;24536;45.488;12.238;2023-03-03T10:47:33;17.10;62.30
38788;DHT22;24536;45.488;12.238;2023-03-03T11:03:45;18.50;59.20
38788;DHT22;24536;45.488;12.238;2023-03-03T11:06:20;18.60;58.80
38788;DHT22;24536;45.488;12.238;2023-03-03T11:16:52;18.90;53.00
38788;DHT22;24536;45.488;12.238;2023-03-03T11:19:35;19.00;56.60
38788;DHT22;24536;45.488;12.238;2023-03-03T11:36:41;19.50;55.30
38788;DHT22;24536;45.488;12.238;2023-03-03T11:39:17;19.70;55.00
38788;DHT22;24536;45.488;12.238;2023-03-03T11:42:08;19.90;53.90
38788;DHT22;24536;45.488;12.238;2023-03-03T11:44:51;20.10;53.50
38788;DHT22;24536;45.488;12.238;2023-03-03T11:47:37;20.20;53.60
38788;DHT22;24536;45.488;12.238;2023-03-03T11:50:13;20.10;52.40
38788;DHT22;24536;45.488;12.238;2023-03-03T11:55:41;20.70;52.40
38788;DHT22;24536;45.488;12.238;2023-03-03T11:58:30;21.30;52.30
38788;DHT22;24536;45.488;12.238;2023-03-03T12:01:21;22.00;51.60
38788;DHT22;24536;45.488;12.238;2023-03-03T12:04:07;22.90;47.90
38788;DHT22;24536;45.488;12.238;2023-03-03T12:17:50;25.90;41.90
38788;DHT22;24536;45.488;12.238;2023-03-03T12:31:23;25.70;40.50
38788;DHT22;24536;45.488;12.238;2023-03-03T12:34:08;25.60;40.30
38788;DHT22;24536;45.488;12.238;2023-03-03T12:36:46;25.40;40.50
38788;DHT22;24536;45.488;12.238;2023-03-03T12:41:55;25.30;40.40
38788;DHT22;24536;45.488;12.238;2023-03-03T12:44:54;25.20;41.50
38788;DHT22;24536;45.488;12.238;2023-03-03T12:47:30;25.10;41.20
38788;DHT22;24536;45.488;12.238;2023-03-03T12:52:53;25.20;41.00
38788;DHT22;24536;45.488;12.238;2023-03-03T12:55:36;25.30;41.10
38788;DHT22;24536;45.488;12.238;2023-03-03T13:00:50;25.80;41.00
38788;DHT22;24536;45.488;12.238;2023-03-03T13:13:43;24.80;40.70
38788;DHT22;24536;45.488;12.238;2023-03-03T13:16:24;24.30;41.30
38788;DHT22;24536;45.488;12.238;2023-03-03T13:21:32;23.70;42.00
38788;DHT22;24536;45.488;12.238;2023-03-03T13:24:22;23.40;42.30
38788;DHT22;24536;45.488;12.238;2023-03-03T13:26:53;22.90;42.80
38788;DHT22;24536;45.488;12.238;2023-03-03T13:29:32;22.70;43.20
38788;DHT22;24536;45.488;12.238;2023-03-03T13:32:03;22.40;43.80
38788;DHT22;24536;45.488;12.238;2023-03-03T13:34:50;22.00;44.40
38788;DHT22;24536;45.488;12.238;2023-03-03T13:37:30;21.70;45.10
38788;DHT22;24536;45.488;12.238;2023-03-03T13:40:23;21.30;45.80
38788;DHT22;24536;45.488;12.238;2023-03-03T13:54:03;20.10;48.60
38788;DHT22;24536;45.488;12.238;2023-03-03T13:59:30;20.00;49.10
38788;DHT22;24536;45.488;12.238;2023-03-03T14:08:06;19.60;49.80
38788;DHT22;24536;45.488;12.238;2023-03-03T14:16:15;19.40;51.70
38788;DHT22;24536;45.488;12.238;2023-03-03T14:18:56;19.30;51.90
38788;DHT22;24536;45.488;12.238;2023-03-03T14:21:37;19.30;51.90
38788;DHT22;24536;45.488;12.238;2023-03-03T14:26:57;19.20;52.10
38788;DHT22;24536;45.488;12.238;2023-03-03T14:31:53;19.10;51.90
38788;DHT22;24536;45.488;12.238;2023-03-03T14:36:49;19.00;52.40
38788;DHT22;24536;45.488;12.238;2023-03-03T14:39:34;18.90;52.80
38788;DHT22;24536;45.488;12.238;2023-03-03T14:42:03;18.80;52.80
38788;DHT22;24536;45.488;12.238;2023-03-03T14:44:52;18.60;52.50
38788;DHT22;24536;45.488;12.238;2023-03-03T14:49:46;18.40;53.20
38788;DHT22;24536;45.488;12.238;2023-03-03T14:54:47;18.20;53.00
38788;DHT22;24536;45.488;12.238;2023-03-03T15:00:01;18.20;54.00
38788;DHT22;24536;45.488;12.238;2023-03-03T15:05:35;18.10;53.30
38788;DHT22;24536;45.488;12.238;2023-03-03T15:10:35;17.90;54.20
38788;DHT22;24536;45.488;12.238;2023-03-03T15:16:10;17.70;54.70
38788;DHT22;24536;45.488;12.238;2023-03-03T15:18:54;17.70;54.70
38788;DHT22;24536;45.488;12.238;2023-03-03T15:21:30;17.70;54.60
38788;DHT22;24536;45.488;12.238;2023-03-03T15:24:37;17.70;54.50
38788;DHT22;24536;45.488;12.238;2023-03-03T15:27:23;17.60;54.60
38788;DHT22;24536;45.488;12.238;2023-03-03T15:33:06;17.60;54.50
38788;DHT22;24536;45.488;12.238;2023-03-03T15:40:48;17.50;54.90
38788;DHT22;24536;45.488;12.238;2023-03-03T15:43:27;17.40;54.90
38788;DHT22;24536;45.488;12.238;2023-03-03T15:56:57;17.10;57.60
38788;DHT22;24536;45.488;12.238;2023-03-03T16:07:51;16.90;58.90
38788;DHT22;24536;45.488;12.238;2023-03-03T16:10:35;16.90;59.30
38788;DHT22;24536;45.488;12.238;2023-03-03T16:26:53;16.60;59.90
38788;DHT22;24536;45.488;12.238;2023-03-03T16:29:26;16.50;59.80
38788;DHT22;24536;45.488;12.238;2023-03-03T16:37:06;16.30;60.50
38788;DHT22;24536;45.488;12.238;2023-03-03T16:40:09;16.20;60.90
38788;DHT22;24536;45.488;12.238;2023-03-03T16:45:37;16.00;61.10
38788;DHT22;24536;45.488;12.238;2023-03-03T16:48:29;16.00;61.50
38788;DHT22;24536;45.488;12.238;2023-03-03T16:56:22;15.90;62.40
38788;DHT22;24536;45.488;12.238;2023-03-03T17:01:42;15.80;62.90
38788;DHT22;24536;45.488;12.238;2023-03-03T17:04:38;15.80;63.00
38788;DHT22;24536;45.488;12.238;2023-03-03T17:18:33;15.50;63.70
38788;DHT22;24536;45.488;12.238;2023-03-03T17:21:01;15.40;63.90
38788;DHT22;24536;45.488;12.238;2023-03-03T17:26:48;15.30;64.00
38788;DHT22;24536;45.488;12.238;2023-03-03T17:29:23;15.20;63.80
38788;DHT22;24536;45.488;12.238;2023-03-03T17:37:42;15.10;64.10
38788;DHT22;24536;45.488;12.238;2023-03-03T17:43:03;14.90;64.40
38788;DHT22;24536;45.488;12.238;2023-03-03T17:45:35;14.90;64.40
38788;DHT22;24536;45.488;12.238;2023-03-03T17:56:19;14.90;65.00
38788;DHT22;24536;45.488;12.238;2023-03-03T18:21:09;14.50;64.60
38788;DHT22;24536;45.488;12.238;2023-03-03T18:23:46;14.50;64.70
38788;DHT22;24536;45.488;12.238;2023-03-03T18:26:36;14.40;64.10
38788;DHT22;24536;45.488;12.238;2023-03-03T18:36:58;14.40;64.20
38788;DHT22;24536;45.488;12.238;2023-03-03T18:42:08;14.30;64.80
38788;DHT22;24536;45.488;12.238;2023-03-03T18:44:35;14.30;64.40
38788;DHT22;24536;45.488;12.238;2023-03-03T18:47:01;14.30;64.40
38788;DHT22;24536;45.488;12.238;2023-03-03T18:52:28;14.20;64.20
38788;DHT22;24536;45.488;12.238;2023-03-03T18:57:36;14.10;64.60
38788;DHT22;24536;45.488;12.238;2023-03-03T19:00:26;14.10;64.60
38788;DHT22;24536;45.488;12.238;2023-03-03T19:02:53;14.00;64.90
38788;DHT22;24536;45.488;12.238;2023-03-03T19:05:45;14.00;65.00
38788;DHT22;24536;45.488;12.238;2023-03-03T19:08:20;14.00;65.20
38788;DHT22;24536;45.488;12.238;2023-03-03T19:11:00;14.00;65.50
38788;DHT22;24536;45.488;12.238;2023-03-03T19:16:05;13.90;65.40
38788;DHT22;24536;45.488;12.238;2023-03-03T19:23:55;13.90;66.10
38788;DHT22;24536;45.488;12.238;2023-03-03T19:42:44;13.60;66.70
38788;DHT22;24536;45.488;12.238;2023-03-03T19:56:05;13.50;66.90
38788;DHT22;24536;45.488;12.238;2023-03-03T20:04:39;13.50;66.80
38788;DHT22;24536;45.488;12.238;2023-03-03T20:07:02;13.50;66.70
38788;DHT22;24536;45.488;12.238;2023-03-03T20:13:02;13.40;67.20
38788;DHT22;24536;45.488;12.238;2023-03-03T20:20:48;13.30;67.50
38788;DHT22;24536;45.488;12.238;2023-03-03T20:29:20;13.10;67.60
38788;DHT22;24536;45.488;12.238;2023-03-03T20:32:07;13.10;67.20
38788;DHT22;24536;45.488;12.238;2023-03-03T20:34:48;13.00;67.20
38788;DHT22;24536;45.488;12.238;2023-03-03T20:37:29;13.00;67.80
38788;DHT22;24536;45.488;12.238;2023-03-03T20:42:54;12.90;67.90
38788;DHT22;24536;45.488;12.238;2023-03-03T20:51:02;12.90;68.40
38788;DHT22;24536;45.488;12.238;2023-03-03T20:56:19;12.90;68.70
38788;DHT22;24536;45.488;12.238;2023-03-03T20:59:06;12.90;68.80
38788;DHT22;24536;45.488;12.238;2023-03-03T21:04:23;12.90;68.60
38788;DHT22;24536;45.488;12.238;2023-03-03T21:06:50;12.90;68.70
38788;DHT22;24536;45.488;12.238;2023-03-03T21:09:37;12.90;68.70
38788;DHT22;24536;45.488;12.238;2023-03-03T21:12:24;12.90;68.90
38788;DHT22;24536;45.488;12.238;2023-03-03T21:15:01;12.90;68.90
38788;DHT22;24536;45.488;12.238;2023-03-03T21:17:28;12.80;69.00
38788;DHT22;24536;45.488;12.238;2023-03-03T21:19:55;12.80;69.10
38788;DHT22;24536;45.488;12.238;2023-03-03T21:22:40;12.80;68.70
38788;DHT22;24536;45.488;12.238;2023-03-03T21:25:06;12.80;69.20
38788;DHT22;24536;45.488;12.238;2023-03-03T21:27:33;12.70;69.30
38788;DHT22;24536;45.488;12.238;2023-03-03T21:30:13;12.70;69.50
38788;DHT22;24536;45.488;12.238;2023-03-03T21:32:43;12.70;69.30
38788;DHT22;24536;45.488;12.238;2023-03-03T21:35:14;12.70;69.80
38788;DHT22;24536;45.488;12.238;2023-03-03T21:37:53;12.70;70.30
38788;DHT22;24536;45.488;12.238;2023-03-03T21:40:24;12.60;69.80
38788;DHT22;24536;45.488;12.238;2023-03-03T21:42:52;12.60;69.90
38788;DHT22;24536;45.488;12.238;2023-03-03T21:45:19;12.60;70.00
38788;DHT22;24536;45.488;12.238;2023-03-03T21:47:45;12.60;70.10
38788;DHT22;24536;45.488;12.238;2023-03-03T21:50:11;12.50;69.90
38788;DHT22;24536;45.488;12.238;2023-03-03T21:52:37;12.50;69.90
38788;DHT22;24536;45.488;12.238;2023-03-03T21:55:03;12.50;70.40
38788;DHT22;24536;45.488;12.238;2023-03-03T21:57:29;12.50;70.60
38788;DHT22;24536;45.488;12.238;2023-03-03T21:59:55;12.40;70.60
38788;DHT22;24536;45.488;12.238;2023-03-03T22:02:21;12.40;70.60
38788;DHT22;24536;45.488;12.238;2023-03-03T22:04:47;12.50;70.70
38788;DHT22;24536;45.488;12.238;2023-03-03T22:07:12;12.40;70.70
38788;DHT22;24536;45.488;12.238;2023-03-03T22:09:38;12.40;70.70
38788;DHT22;24536;45.488;12.238;2023-03-03T22:12:04;12.40;70.90
38788;DHT22;24536;45.488;12.238;2023-03-03T22:14:30;12.30;71.00
38788;DHT22;24536;45.488;12.238;2023-03-03T22:16:57;12.30;71.10
38788;DHT22;24536;45.488;12.238;2023-03-03T22:19:22;12.30;71.20
38788;DHT22;24536;45.488;12.238;2023-03-03T22:21:48;12.30;71.20
38788;DHT22;24536;45.488;12.238;2023-03-03T22:24:14;12.30;70.60
38788;DHT22;24536;45.488;12.238;2023-03-03T22:26:40;12.30;71.10
38788;DHT22;24536;45.488;12.238;2023-03-03T22:29:06;12.30;71.20
38788;DHT22;24536;45.488;12.238;2023-03-03T22:31:32;12.30;71.60
38788;DHT22;24536;45.488;12.238;2023-03-03T22:33:59;12.30;70.80
38788;DHT22;24536;45.488;12.238;2023-03-03T22:38:51;12.10;70.70
38788;DHT22;24536;45.488;12.238;2023-03-03T22:41:17;12.10;71.20
38788;DHT22;24536;45.488;12.238;2023-03-03T22:43:45;12.00;71.00
38788;DHT22;24536;45.488;12.238;2023-03-03T22:46:12;12.00;71.40
38788;DHT22;24536;45.488;12.238;2023-03-03T22:48:38;12.00;71.50
38788;DHT22;24536;45.488;12.238;2023-03-03T22:51:04;11.90;71.80
38788;DHT22;24536;45.488;12.238;2023-03-03T22:53:30;11.90;71.70
38788;DHT22;24536;45.488;12.238;2023-03-03T22:55:55;11.80;71.30
38788;DHT22;24536;45.488;12.238;2023-03-03T22:58:21;11.80;72.20
38788;DHT22;24536;45.488;12.238;2023-03-03T23:00:50;11.80;71.80